Grand Prairie, TX (75050)

10:50 PM CST on February 10, 2016 (GMT -0600)
North Central | | Change Station
CLOSE
Current Station
Personal Weather Station
Location: Grand Prairie, TX
Elevation: 480 ft
Nearby Weather Stations
Active Advisory: Flood Warning

Elev 480 ft 32.76 °N, 97.02 °W | Updated 9 seconds ago

Clear
Clear
58.3 °F
Feels Like 58.3 °F
N
0.0
Wind Variable Wind from North
Gusts 0.0 mph

Today
High -- | Low -- °F
--% Chance of Precip.
Yesterday
High -- | Low -- °F
Precip. -- in
Pressure 30.07 in
Visibility 10.0 miles
Clouds Clear
Dew Point 30 °F
Humidity 34%
Rainfall 0.00 in
Snow Depth Not available.
7:16 AM 6:08 PM
Waxing Crescent, 9% visible
METAR KGPM 110435Z AUTO 18009KT 10SM CLR 14/01 A3007 RMK AO2 T01410007
Pressure 30.07 in
Visibility 10.0 miles
Clouds Clear
Dew Point 30 °F
Humidity 34%
Rainfall 0.00 in
Snow Depth Not available.
7:16 AM 6:08 PM
Waxing Crescent, 9% visible
METAR KGPM 110435Z AUTO 18009KT 10SM CLR 14/01 A3007 RMK AO2 T01410007

10-Day Weather Forecast

Almanac

Astronomy

Feb. 10, 2016 Rise Set
Actual Time
Civil Twilight
Nautical Twilight
Astronomical Twilight
Moon
Length of Visible Light
Length of Day
Tomorrow will be .
, % of the Moon is Illuminated

Today's Extremes

State Highs State Lows

Community

WunderPhotos

Upload Photos

1,892,015 photos uploaded!

WunderBlog® & News

Nearby

Air Quality

  Air Quality AQ Index Pollutant
Not available.

Snow Depth

Station Depth Elevation

Earthquake Activity

City Distance Mag. Time & Date
Minimum magnitude displayed is 2.5.

Coastal Water Temperatures

Place Temperature

Stations

Nearby Weather Stations

Station Location Temp. Windchill Dew Point Humidity Wind Precip. Elev Updated Type
                   

Watches & Warnings

Flood Warning
Issued: 6:38 PM CST Feb. 10, 2016 – National Weather Service

The Flood Warning continues for
the Elm Fork Trinity River near Carrollton.
* At 0615 PM Wednesday the stage was 8.37 feet.
* Flood stage is 8 feet.
* Minor flooding is occurring and minor flooding is forecast.
* Forecast... the river will remain near 8.3 feet for the next few
days.


Lat... Lon 3300 9700 3287 9699 3287 9687 3300 9688